Terminal Aerodrome Forecast
Issued by NWS

Home | Current Version | Previous Version | Graphics & Text | Print | Product List | Glossary On
Versions: 1 2 3 4 5 6 7 8 9 10 11 12
000
FTUS43 KMPX 242320
TAFAXN
TAF
KAXN 242320Z 2500/2524 13008KT P6SM SCT035 SCT050
     FM251400 15016G24KT P6SM SCT050 BKN090 PROB30 2519/2523 P6SM
      -SHRA BKN050 OVC090=

USA.gov is the U.S. government's official web portal to all federal, state and local government web resources and services.